Time;durP1;ratioP1;P1;durP2;ratioP2;P2;SDS_P1;SDS_P2;PMS_P1;PMS_P2;Temp;Humidity;BMP_temperature;BMP_pressure;BME280_temperature;BME280_humidity;BME280_pressure;Samples;Min_cycle;Max_cycle;Signal;HPM_P1;HPM_P2
2021/09/11 16:44:18;;;;;;;;;;;21.20;58.20;;;;;;5110801;27;19912;-94
2021/09/11 16:46:44;;;;;;;;;;;20.80;61.10;;;;;;5129070;28;19999;-94
2021/09/11 16:49:10;;;;;;;;;;;20.80;62.80;;;;;;5103525;28;19908;-94
2021/09/11 16:51:37;;;;;;;;;;;20.80;63.90;;;;;;5104123;28;19909;-96
2021/09/11 16:54:02;;;;;;;;;;;20.80;64.70;;;;;;5107645;28;19916;-95
2021/09/11 16:56:29;;;;;;;;;;;20.80;65.20;;;;;;5102755;28;19958;-92
2021/09/11 16:58:54;;;;;;;;;;;20.80;65.50;;;;;;5089333;28;19913;-92
2021/09/11 17:01:23;;;;;;;;;;;20.80;65.60;;;;;;5070200;28;19971;-92
2021/09/11 17:03:49;;;;;;;;;;;20.90;65.80;;;;;;5072780;28;19912;-93
2021/09/11 17:06:14;;;;;;;;;;;20.90;65.80;;;;;;5101579;28;19912;-91
2021/09/11 17:08:40;;;;;;;;;;;20.90;65.80;;;;;;5083729;28;19916;-94
2021/09/11 17:11:06;;;;;;;;;;;20.90;65.80;;;;;;5104405;28;19954;-95
2021/09/11 17:13:32;;;;;;;;;;;20.90;65.90;;;;;;5096850;28;19934;-95
2021/09/11 17:15:57;;;;;;;;;;;20.90;65.90;;;;;;5089957;28;20379;-91
2021/09/11 17:18:23;;;;;;;;;;;20.90;65.90;;;;;;5091379;28;19912;-91
2021/09/11 17:20:49;;;;;;;;;;;20.90;66.00;;;;;;5089834;28;19974;-91
2021/09/11 17:23:15;;;;;;;;;;;20.90;66.40;;;;;;5089905;28;20360;-91
2021/09/11 17:25:41;;;;;;;;;;;20.90;65.80;;;;;;5089403;28;19943;-92
2021/09/11 17:28:06;;;;;;;;;;;20.90;65.70;;;;;;5089714;28;19912;-90
2021/09/11 17:30:32;;;;;;;;;;;20.90;65.80;;;;;;5089391;28;19912;-91
2021/09/11 17:32:59;;;;;;;;;;;20.90;65.90;;;;;;5123144;28;20354;-91
2021/09/11 17:35:29;;;;;;;;;;;20.90;65.80;;;;;;5089212;28;19909;-91
2021/09/11 17:37:55;;;;;;;;;;;20.90;65.90;;;;;;5090341;28;19912;-94
2021/09/11 17:40:20;;;;;;;;;;;20.80;65.90;;;;;;5088860;28;19916;-94
2021/09/11 17:42:46;;;;;;;;;;;20.80;66.00;;;;;;5079123;28;20333;-92
2021/09/11 17:45:11;;;;;;;;;;;20.80;66.00;;;;;;5089234;28;19912;-94
2021/09/11 17:47:37;;;;;;;;;;;20.80;66.00;;;;;;5090500;28;20395;-95
2021/09/11 17:50:03;;;;;;;;;;;20.80;66.00;;;;;;5089496;28;19908;-94
2021/09/11 17:52:29;;;;;;;;;;;20.80;66.10;;;;;;5088913;28;19966;-94
2021/09/11 17:54:54;;;;;;;;;;;20.80;66.20;;;;;;5079226;28;20009;-92
2021/09/11 17:57:20;;;;;;;;;;;20.70;66.20;;;;;;5075755;28;19916;-93
2021/09/11 19:24:20;;;;;;;;;;;18.40;64.20;;;;;;5106983;27;20360;-95
2021/09/11 19:26:46;;;;;;;;;;;18.30;66.30;;;;;;5112368;28;19919;-95
2021/09/11 19:29:11;;;;;;;;;;;18.30;67.70;;;;;;5111683;28;19935;-96
2021/09/11 19:31:37;;;;;;;;;;;18.40;69.20;;;;;;5113763;28;20342;-96
2021/09/11 19:34:03;;;;;;;;;;;18.50;69.00;;;;;;5112173;28;19966;-95
2021/09/11 19:36:28;;;;;;;;;;;18.60;69.30;;;;;;5109284;28;19951;-91
2021/09/11 21:26:14;;;;;;;;;;;17.70;67.30;;;;;;5106950;27;20257;-90
2021/09/11 21:28:39;;;;;;;;;;;17.60;69.80;;;;;;5143486;27;19918;-91
2021/09/11 21:31:05;;;;;;;;;;;17.60;71.60;;;;;;5109112;28;19991;-89
2021/09/11 21:33:30;;;;;;;;;;;17.70;72.70;;;;;;5106867;28;19919;-91
2021/09/11 21:35:56;;;;;;;;;;;17.80;73.30;;;;;;5102936;28;19919;-90
2021/09/11 21:38:21;;;;;;;;;;;17.80;73.90;;;;;;5096799;28;19920;-91
2021/09/11 21:40:47;;;;;;;;;;;17.90;74.40;;;;;;5103616;28;20292;-89
